.
WxDataArchive / Data Records for 2016-05-11
2016-05-10 May 2016 2016-05-12

Data Records for Wednesday, 11 May 2016

Time	Temp	Chill	HIndex	Humid	Dewpt	 Wind 	HiWind	WindDir	Rain 	Barom
-----	----	-----	------	-----	-----	------	------	-------	-----	-----
00:00	56.7	56.7	56.7	96	55.6	0	1	112	0.00	29.959 
00:05	56.9	56.9	56.9	96	55.8	0	2	112	0.00	29.959 
00:10	56.9	56.9	56.9	96	55.8	0	0	---	0.00	29.959 
00:15	56.9	56.9	56.9	96	55.8	0	1	112	0.00	29.955 
00:20	56.9	56.9	56.9	96	55.8	0	0	---	0.00	29.955 
00:25	56.9	56.9	56.9	96	55.8	0	1	112	0.00	29.955 
00:30	56.7	56.7	56.7	96	55.6	0	1	112	0.00	29.958 
00:35	56.7	56.7	56.7	96	55.6	0	0	---	0.00	29.958 
00:40	56.7	56.7	56.7	96	55.6	0	1	112	0.00	29.958 
00:45	56.6	56.6	56.6	96	55.5	0	2	112	0.00	29.959 
00:50	56.5	56.5	56.5	96	55.4	0	0	---	0.00	29.959 
00:55	56.3	56.3	56.3	96	55.2	0	1	112	0.00	29.959 
01:00	56.2	56.2	56.2	96	55.1	0	1	112	0.00	29.961 
01:05	55.9	55.9	55.9	96	54.8	0	1	112	0.00	29.961 
01:10	55.7	55.7	55.7	96	54.6	0	2	112	0.00	29.961 
01:15	55.6	55.6	55.6	96	54.5	0	3	112	0.00	29.961 
01:20	55.4	55.4	55.4	96	54.3	0	1	112	0.00	29.961 
01:25	55.3	55.3	55.3	96	54.2	0	3	112	0.00	29.961 
01:30	55.1	55.1	55.1	96	54.0	0	2	112	0.00	29.962 
01:35	55.1	55.1	55.1	96	54.0	0	1	112	0.00	29.962 
01:40	55.0	55.0	55.0	96	53.9	0	2	112	0.00	29.962 
01:45	55.0	55.0	55.0	96	53.9	0	1	112	0.00	29.966 
01:50	54.8	54.8	54.8	96	53.7	0	4	112	0.00	29.966 
01:55	54.7	54.7	54.7	96	53.6	0	3	112	0.00	29.966 
02:00	54.5	54.5	54.5	96	53.4	0	2	112	0.00	29.968 
02:05	54.2	54.2	54.2	96	53.1	1	3	112	0.00	29.968 
02:10	54.1	54.1	54.1	96	53.0	0	1	112	0.00	29.968 
02:15	53.9	53.9	53.9	96	52.8	1	3	112	0.00	29.968 
02:20	53.8	53.8	53.8	96	52.7	1	3	112	0.00	29.968 
02:25	53.6	53.6	53.6	96	52.5	0	0	---	0.00	29.968 
02:30	53.6	53.6	53.6	96	52.5	0	1	112	0.00	29.969 
02:35	53.5	53.5	53.5	96	52.4	0	2	112	0.00	29.969 
02:40	53.5	53.5	53.5	96	52.4	0	2	112	0.00	29.969 
02:45	53.3	53.3	53.3	96	52.2	0	2	112	0.00	29.976 
02:50	53.2	53.2	53.2	96	52.1	0	2	112	0.00	29.976 
02:55	53.2	53.2	53.2	96	52.1	0	2	112	0.00	29.976 
03:00	53.2	53.2	53.2	96	52.1	0	2	112	0.00	29.978 
03:05	53.2	53.2	53.2	96	52.1	0	1	112	0.00	29.978 
03:10	53.2	53.2	53.2	97	52.4	0	1	112	0.00	29.978 
03:15	53.2	53.2	53.2	96	52.1	0	0	---	0.00	29.976 
03:20	53.2	53.2	53.2	96	52.1	0	2	112	0.00	29.976 
03:25	53.1	53.1	53.1	96	52.0	0	2	112	0.00	29.976 
03:30	53.1	53.1	53.1	96	52.0	0	1	112	0.00	29.977 
03:35	53.1	53.1	53.1	96	52.0	0	0	---	0.00	29.977 
03:40	53.1	53.1	53.1	97	52.3	0	2	112	0.00	29.977 
03:45	52.9	52.9	52.9	97	52.1	0	3	112	0.00	29.982 
03:50	52.8	52.8	52.8	97	52.0	1	3	112	0.00	29.982 
03:55	52.8	52.8	52.8	97	52.0	0	3	112	0.00	29.982 
04:00	52.8	52.8	52.8	97	52.0	0	3	112	0.00	29.980 
04:05	52.8	52.8	52.8	97	52.0	0	1	112	0.00	29.980 
04:10	52.6	52.6	52.6	97	51.8	1	3	112	0.00	29.980 
04:15	52.6	52.6	52.6	97	51.8	0	2	112	0.00	29.979 
04:20	52.6	52.6	52.6	97	51.8	0	1	112	0.00	29.979 
04:25	52.6	52.6	52.6	97	51.8	0	1	112	0.00	29.979 
04:30	52.6	52.6	52.6	97	51.8	0	2	112	0.00	29.977 
04:35	52.6	52.6	52.6	97	51.8	0	1	112	0.00	29.977 
04:40	52.5	52.5	52.5	97	51.7	0	1	112	0.00	29.977 
04:45	52.5	52.5	52.5	97	51.7	0	1	112	0.00	29.978 
04:50	52.5	52.5	52.5	97	51.7	0	0	---	0.00	29.978 
04:55	52.6	52.6	52.6	97	51.8	0	3	112	0.00	29.978 
05:00	52.6	52.6	52.6	97	51.8	1	3	68	0.00	29.983 
05:05	52.5	52.5	52.5	97	51.7	0	1	68	0.00	29.983 
05:10	52.6	52.6	52.6	97	51.8	0	1	68	0.00	29.983 
05:15	52.6	52.6	52.6	97	51.8	0	2	68	0.00	29.988 
05:20	52.6	52.6	52.6	97	51.8	0	2	68	0.00	29.988 
05:25	52.6	52.6	52.6	97	51.8	0	1	68	0.00	29.988 
05:30	52.6	52.6	52.6	97	51.8	0	2	68	0.00	29.989 
05:35	52.6	52.6	52.6	97	51.8	0	1	68	0.00	29.989 
05:40	52.6	52.6	52.6	97	51.8	0	1	68	0.00	29.989 
05:45	52.8	52.8	52.8	97	52.0	0	0	---	0.00	29.990 
05:50	52.8	52.8	52.8	97	52.0	0	2	68	0.00	29.990 
05:55	52.8	52.8	52.8	97	52.0	0	1	68	0.00	29.990 
06:00	52.8	52.8	52.8	97	52.0	0	4	68	0.00	29.991 
06:05	52.8	52.8	52.8	97	52.0	0	2	68	0.00	29.991 
06:10	52.6	52.6	52.6	97	51.8	0	3	68	0.00	29.991 
06:15	52.6	52.6	52.6	97	51.8	0	2	68	0.00	29.994 
06:20	52.6	52.6	52.6	97	51.8	0	2	68	0.00	29.994 
06:25	52.6	52.6	52.6	97	51.8	0	1	68	0.00	29.994 
06:30	52.6	52.6	52.6	97	51.8	0	3	68	0.00	30.005 
06:35	52.6	52.6	52.6	97	51.8	0	1	68	0.00	30.005 
06:40	52.8	52.8	52.8	97	52.0	0	2	68	0.00	30.005 
06:45	52.6	52.6	52.6	97	51.8	0	1	68	0.00	30.006 
06:50	52.6	52.6	52.6	97	51.8	0	2	68	0.00	30.006 
06:55	52.6	52.6	52.6	97	51.8	0	2	68	0.00	30.006 
07:00	52.8	52.8	52.8	97	52.0	0	2	68	0.00	30.009 
07:05	52.6	52.6	52.6	97	51.8	0	1	68	0.00	30.009 
07:10	52.8	52.8	52.8	97	52.0	0	1	68	0.00	30.009 
07:15	52.8	52.8	52.8	97	52.0	0	1	68	0.00	30.013 
07:20	52.8	52.8	52.8	97	52.0	0	0	---	0.00	30.013 
07:25	52.8	52.8	52.8	97	52.0	0	0	---	0.00	30.013 
07:30	52.8	52.8	52.8	97	52.0	0	1	68	0.00	30.014 
07:35	52.8	52.8	52.8	97	52.0	0	2	68	0.00	30.014 
07:40	52.8	52.8	52.8	97	52.0	0	1	68	0.00	30.014 
07:45	52.8	52.8	52.8	97	52.0	0	1	68	0.00	30.019 
07:50	52.9	52.9	52.9	97	52.1	0	1	68	0.00	30.019 
07:55	52.9	52.9	52.9	97	52.1	0	1	68	0.00	30.019 
08:00	53.1	53.1	53.1	98	52.5	0	2	68	0.00	30.019 
08:05	53.1	53.1	53.1	97	52.3	0	2	68	0.00	30.019 
08:10	53.1	53.1	53.1	97	52.3	1	3	68	0.00	30.019 
08:15	53.1	53.1	53.1	98	52.5	1	3	68	0.00	30.015 
08:20	53.2	53.2	53.2	98	52.6	1	3	68	0.00	30.015 
08:25	53.3	53.3	53.3	98	52.7	1	4	68	0.00	30.015 
08:30	53.3	53.3	53.3	98	52.7	0	2	68	0.00	30.020 
08:35	53.5	53.5	53.5	98	52.9	0	2	68	0.00	30.020 
08:40	53.5	53.5	53.5	98	52.9	0	2	68	0.00	30.020 
08:45	53.5	53.5	53.5	98	52.9	1	3	68	0.00	30.023 
08:50	53.5	53.5	53.5	98	52.9	0	2	68	0.00	30.023 
08:55	53.5	53.5	53.5	98	52.9	0	1	68	0.00	30.023 
09:00	53.6	53.6	53.6	98	53.0	0	2	68	0.00	30.027 
09:05	53.8	53.8	53.8	98	53.2	0	2	68	0.00	30.027 
09:10	53.8	53.8	53.8	98	53.2	0	2	68	0.00	30.027 
09:15	53.9	53.9	53.9	98	53.3	0	2	68	0.00	30.027 
09:20	54.1	54.1	54.1	98	53.5	1	2	68	0.00	30.027 
09:25	54.1	54.1	54.1	98	53.5	0	2	68	0.00	30.027 
09:30	54.4	54.4	54.4	98	53.8	1	3	68	0.00	30.029 
09:35	54.4	54.4	54.4	98	53.8	1	3	68	0.00	30.029 
09:40	54.5	54.5	54.5	98	53.9	0	2	90	0.00	30.029 
09:45	54.7	54.7	54.7	98	54.1	0	0	---	0.00	30.035 
09:50	54.7	54.7	54.7	98	54.1	0	2	90	0.00	30.035 
09:55	54.8	54.8	54.8	98	54.2	0	2	90	0.00	30.035 
10:00	54.8	54.8	54.8	98	54.2	1	5	112	0.00	30.027 
10:05	55.0	55.0	55.0	98	54.4	1	3	112	0.00	30.027 
10:10	55.1	55.1	55.1	98	54.5	0	2	112	0.00	30.027 
10:15	55.3	55.3	55.3	98	54.7	0	0	---	0.00	30.029 
10:20	55.3	55.3	55.3	98	54.7	0	0	---	0.00	30.029 
10:25	55.4	55.4	55.4	98	54.8	1	3	112	0.00	30.029 
10:30	55.6	55.6	55.6	98	55.0	0	3	112	0.00	30.027 
10:35	55.7	55.7	55.7	98	55.1	0	1	112	0.00	30.027 
10:40	55.7	55.7	55.7	98	55.1	0	3	112	0.00	30.027 
10:45	55.9	55.9	55.9	98	55.3	0	2	112	0.00	30.035 
10:50	55.9	55.9	55.9	98	55.3	0	1	112	0.00	30.035 
10:55	56.0	56.0	56.0	98	55.4	0	1	112	0.00	30.035 
11:00	56.2	56.2	56.2	98	55.6	0	2	112	0.00	30.040 
11:05	56.3	56.3	56.3	98	55.7	0	3	112	0.00	30.040 
11:10	56.5	56.5	56.5	98	55.9	0	2	112	0.00	30.040 
11:15	56.5	56.5	56.5	98	55.9	0	0	---	0.00	30.041 
11:20	56.7	56.7	56.7	98	56.1	0	2	112	0.00	30.041 
11:25	57.0	57.0	57.0	98	56.4	0	2	112	0.00	30.041 
11:30	57.2	57.2	57.2	98	56.6	0	2	112	0.00	30.044 
11:35	57.3	57.3	57.3	98	56.7	0	2	112	0.00	30.044 
11:40	57.6	57.6	57.6	98	57.0	0	1	112	0.00	30.044 
11:45	58.1	58.1	58.1	98	57.5	0	0	---	0.00	30.051 
11:50	58.6	58.6	58.6	98	58.0	0	0	---	0.00	30.051 
11:55	59.5	59.5	59.5	98	58.9	0	3	112	0.00	30.051 
12:00	59.8	59.8	59.8	98	59.2	0	3	112	0.00	30.045 
12:05	60.1	60.1	60.1	98	59.5	0	1	112	0.00	30.045 
12:10	60.4	60.4	60.4	98	59.8	0	1	112	0.00	30.045 
12:15	60.7	60.7	60.7	98	60.1	0	2	112	0.00	30.042 
12:20	60.9	60.9	60.9	98	60.3	0	1	112	0.00	30.042 
12:25	61.0	61.0	61.0	97	60.1	0	1	112	0.00	30.042 
12:30	61.3	61.3	61.3	97	60.4	0	1	112	0.00	30.045 
12:35	61.6	61.6	61.6	97	60.7	0	2	112	0.00	30.045 
12:40	61.8	61.8	61.8	97	60.9	0	1	112	0.00	30.045 
12:45	61.8	61.8	61.8	96	60.6	0	2	112	0.00	30.048 
12:50	62.0	62.0	62.0	96	60.8	0	1	112	0.00	30.048 
12:55	62.3	62.3	62.3	96	61.1	0	1	112	0.00	30.048 
13:00	62.6	62.6	62.6	95	61.1	0	1	112	0.00	30.047 
13:05	62.9	62.9	62.9	95	61.4	0	1	112	0.00	30.047 
13:10	63.2	63.2	63.2	94	61.4	0	0	---	0.00	30.047 
13:15	63.4	63.4	63.4	94	61.6	0	1	112	0.00	30.046 
13:20	64.0	64.0	64.0	92	61.6	0	1	112	0.00	30.046 
13:25	64.2	64.2	64.2	91	61.5	0	1	112	0.00	30.046 
13:30	64.5	64.5	64.5	90	61.5	0	2	112	0.00	30.047 
13:35	64.8	64.8	64.8	89	61.5	0	2	112	0.00	30.047 
13:40	65.2	65.2	65.2	88	61.6	0	1	112	0.00	30.047 
13:45	65.3	65.3	65.3	86	61.0	0	2	112	0.00	30.049 
13:50	65.2	65.2	65.2	84	60.2	1	3	112	0.00	30.049 
13:55	65.3	65.3	65.3	84	60.3	0	2	112	0.00	30.049 
14:00	65.5	65.5	65.5	83	60.2	0	2	112	0.00	30.051 
14:05	65.6	65.6	65.6	83	60.3	0	1	112	0.00	30.051 
14:10	66.1	66.1	66.1	82	60.4	0	0	---	0.00	30.051 
14:15	66.9	66.9	66.9	81	60.9	0	2	112	0.00	30.049 
14:20	67.8	67.8	67.8	81	61.7	0	3	112	0.00	30.049 
14:25	68.3	68.3	68.3	78	61.2	0	1	112	0.00	30.049 
14:30	68.1	68.1	68.1	77	60.6	0	2	112	0.00	30.044 
14:35	67.8	67.8	67.8	77	60.3	1	3	112	0.00	30.044 
14:40	68.3	68.3	68.3	79	61.5	0	2	112	0.00	30.044 
14:45	68.9	68.9	68.9	78	61.7	0	1	112	0.00	30.033 
14:50	69.1	69.1	69.1	76	61.2	0	1	112	0.00	30.033 
14:55	69.1	69.1	69.1	76	61.2	0	1	112	0.00	30.033 
15:00	68.9	68.9	68.9	76	61.0	0	1	112	0.00	30.032 
15:05	69.3	69.3	69.3	75	61.0	0	1	112	0.00	30.032 
15:10	69.4	69.4	69.4	73	60.4	0	3	112	0.00	30.032 
15:15	69.4	69.4	69.4	73	60.4	0	3	112	0.00	30.024 
15:20	69.4	69.4	69.4	74	60.7	1	4	112	0.00	30.024 
15:25	69.4	69.4	69.4	76	61.5	1	4	112	0.00	30.024 
15:30	69.9	69.9	69.9	74	61.2	0	1	112	0.00	30.022 
15:35	70.1	70.1	70.1	74	61.4	0	1	112	0.00	30.022 
15:40	70.3	70.3	70.3	74	61.6	0	2	112	0.00	30.022 
15:45	70.4	70.4	70.4	74	61.7	0	1	112	0.00	30.024 
15:50	70.9	70.9	70.9	73	61.8	0	2	112	0.00	30.024 
15:55	71.5	71.5	71.5	71	61.6	0	1	112	0.00	30.024 
16:00	71.5	71.5	71.5	72	62.0	0	1	112	0.00	30.015 
16:05	72.0	72.0	72.0	71	62.1	0	1	112	0.00	30.015 
16:10	72.1	72.1	72.1	68	60.9	0	2	112	0.00	30.015 
16:15	72.5	72.5	72.5	69	61.7	0	2	112	0.00	30.010 
16:20	72.8	72.8	72.8	69	62.0	0	2	112	0.00	30.010 
16:25	72.7	72.7	72.7	66	60.7	0	3	112	0.00	30.010 
16:30	72.5	72.5	72.5	67	60.9	0	1	112	0.00	30.007 
16:35	72.3	72.3	72.3	68	61.1	0	2	112	0.00	30.007 
16:40	72.1	72.1	72.1	67	60.5	0	0	---	0.00	30.007 
16:45	72.0	72.0	72.0	69	61.3	0	1	112	0.00	30.002 
16:50	72.1	72.1	72.1	69	61.4	0	2	112	0.00	30.002 
16:55	72.7	72.7	72.7	69	61.9	0	0	---	0.00	30.002 
17:00	73.0	73.0	73.0	66	61.0	0	2	112	0.00	29.996 
17:05	72.7	72.7	72.7	68	61.5	0	1	112	0.00	29.996 
17:10	72.5	72.5	72.5	68	61.3	0	1	112	0.00	29.996 
17:15	72.3	72.3	72.3	67	60.7	0	1	112	0.00	29.994 
17:20	72.3	72.3	72.3	68	61.1	0	0	---	0.00	29.994 
17:25	72.3	72.3	72.3	69	61.5	0	0	---	0.00	29.994 
17:30	72.5	72.5	72.5	68	61.3	0	1	112	0.00	29.996 
17:35	72.3	72.3	72.3	67	60.7	0	1	112	0.00	29.996 
17:40	72.3	72.3	72.3	69	61.5	0	0	---	0.00	29.996 
17:45	72.1	72.1	72.1	68	60.9	0	1	112	0.00	29.998 
17:50	72.3	72.3	72.3	67	60.7	0	0	---	0.00	29.998 
17:55	72.3	72.3	72.3	65	59.9	0	1	112	0.00	29.998 
18:00	72.5	72.5	72.5	69	61.7	0	1	112	0.00	29.989 
18:05	72.7	72.7	72.7	66	60.7	0	1	112	0.00	29.989 
18:10	72.8	72.8	72.8	67	61.2	0	2	112	0.00	29.989 
18:15	72.7	72.7	72.7	65	60.2	1	2	112	0.00	29.987 
18:20	72.7	72.7	72.7	67	61.1	0	1	112	0.00	29.987 
18:25	72.5	72.5	72.5	65	60.0	1	3	112	0.00	29.987 
18:30	72.5	72.5	72.5	66	60.5	0	2	112	0.00	29.983 
18:35	72.5	72.5	72.5	66	60.5	0	1	112	0.00	29.983 
18:40	72.5	72.5	72.5	67	60.9	0	2	112	0.00	29.983 
18:45	72.5	72.5	72.5	67	60.9	1	3	112	0.00	29.978 
18:50	72.3	72.3	72.3	68	61.1	0	2	112	0.00	29.978 
18:55	72.3	72.3	72.3	69	61.5	0	2	112	0.00	29.978 
19:00	72.1	72.1	72.1	68	60.9	0	2	112	0.00	29.972 
19:05	72.0	72.0	72.0	68	60.8	0	2	112	0.00	29.972 
19:10	71.8	71.8	71.8	68	60.7	0	1	112	0.00	29.972 
19:15	71.8	71.8	71.8	69	61.1	1	2	112	0.00	29.980 
19:20	71.5	71.5	71.5	70	61.2	1	2	112	0.00	29.980 
19:25	71.3	71.3	71.3	70	61.0	0	2	112	0.00	29.980 
19:30	71.1	71.1	71.1	71	61.2	0	1	112	0.00	29.983 
19:35	70.9	70.9	70.9	72	61.4	0	1	112	0.00	29.983 
19:40	70.6	70.6	70.6	72	61.1	0	1	112	0.00	29.983 
19:45	70.4	70.4	70.4	72	60.9	0	0	---	0.00	29.986 
19:50	70.3	70.3	70.3	73	61.2	0	1	112	0.00	29.986 
19:55	70.1	70.1	70.1	74	61.4	0	0	---	0.00	29.986 
20:00	69.9	69.9	69.9	74	61.2	0	0	---	0.00	29.987 
20:05	69.8	69.8	69.8	74	61.1	0	0	---	0.00	29.987 
20:10	69.6	69.6	69.6	75	61.3	0	0	---	0.00	29.987 
20:15	69.4	69.4	69.4	76	61.5	0	0	---	0.00	29.984 
20:20	69.3	69.3	69.3	76	61.4	0	1	112	0.00	29.984 
20:25	69.1	69.1	69.1	77	61.6	0	0	---	0.00	29.984 
20:30	68.9	68.9	68.9	77	61.4	0	1	112	0.00	29.983 
20:35	68.8	68.8	68.8	77	61.3	0	0	---	0.00	29.983 
20:40	68.6	68.6	68.6	77	61.1	0	1	112	0.00	29.983 
20:45	68.4	68.4	68.4	77	60.9	0	0	---	0.00	29.990 
20:50	68.4	68.4	68.4	78	61.3	0	1	112	0.00	29.990 
20:55	68.3	68.3	68.3	79	61.5	0	0	---	0.00	29.990 
21:00	68.1	68.1	68.1	79	61.3	0	1	112	0.00	29.987 
21:05	67.9	67.9	67.9	80	61.5	0	1	112	0.00	29.987 
21:10	67.8	67.8	67.8	80	61.4	0	1	112	0.00	29.987 
21:15	67.6	67.6	67.6	81	61.6	0	1	112	0.00	29.986 
21:20	67.4	67.4	67.4	81	61.4	0	0	---	0.00	29.986 
21:25	67.3	67.3	67.3	81	61.3	0	1	112	0.00	29.986 
21:30	66.9	66.9	66.9	82	61.2	0	1	112	0.00	29.977 
21:35	66.8	66.8	66.8	83	61.5	0	2	112	0.00	29.977 
21:40	66.6	66.6	66.6	83	61.3	1	3	112	0.00	29.977 
21:45	66.4	66.4	66.4	83	61.1	1	5	112	0.00	29.982 
21:50	66.3	66.3	66.3	84	61.3	1	4	112	0.00	29.982 
21:55	66.1	66.1	66.1	84	61.1	1	4	112	0.00	29.982 
22:00	66.0	66.0	66.0	84	61.0	1	2	112	0.00	29.972 
22:05	65.8	65.8	65.8	85	61.2	0	3	112	0.00	29.972 
22:10	65.6	65.6	65.6	85	61.0	0	2	112	0.00	29.972 
22:15	65.3	65.3	65.3	86	61.0	0	2	112	0.00	29.969 
22:20	65.2	65.2	65.2	86	60.9	1	4	112	0.00	29.969 
22:25	65.0	65.0	65.0	86	60.7	1	2	112	0.00	29.969 
22:30	64.8	64.8	64.8	87	60.8	1	3	112	0.00	29.964 
22:35	64.7	64.7	64.7	87	60.7	1	3	112	0.00	29.964 
22:40	64.7	64.7	64.7	87	60.7	1	3	112	0.00	29.964 
22:45	64.5	64.5	64.5	87	60.5	0	2	112	0.00	29.970 
22:50	64.3	64.3	64.3	88	60.7	1	2	112	0.00	29.970 
22:55	64.3	64.3	64.3	88	60.7	1	4	112	0.00	29.970 
23:00	64.3	64.3	64.3	88	60.7	1	3	112	0.00	29.973 
23:05	64.3	64.3	64.3	88	60.7	2	5	112	0.00	29.973 
23:10	64.3	64.3	64.3	88	60.7	1	4	112	0.00	29.973 
23:15	64.3	64.3	64.3	88	60.7	2	4	112	0.00	29.967 
23:20	64.2	64.2	64.2	89	60.9	1	4	90	0.00	29.967 
23:25	64.0	64.0	64.0	89	60.7	1	3	90	0.00	29.967 
23:30	63.9	63.9	63.9	89	60.6	1	3	90	0.00	29.982 
23:35	63.7	63.7	63.7	89	60.4	1	4	90	0.00	29.982 
23:40	63.5	63.5	63.5	90	60.5	1	3	90	0.00	29.982 
23:45	63.4	63.4	63.4	90	60.4	1	3	90	0.00	29.990 
23:50	63.4	63.4	63.4	90	60.4	1	2	90	0.00	29.990 
23:55	63.2	63.2	63.2	90	60.2	0	2	90	0.00	29.990 

CoCoRaHS
IN-AL-39
A2 Web Hosting
Creative Commons License
GoDaddy
search engine by freefind advanced

loaded 2018-11-13 22:23:15 • last modified 2010-11-18 10:43:29
Privacy PolicyDisclaimer
• wx.awcolley.com is powered by PmWiki v.2002016 •
• all content (unless otherwise noted) © 2018 A W Colley